Weather at Skopelos Heliport

Public forecast

Using degrees Celsius for public forecast. Weather courtesy of forecast.io.

Closest aviation weather report (METAR) to Skopelos Heliport

Report is more than 2 hours old.

Closest report is Skiathos Island National Airport, 11.6 nm (21.5 km) WNW.

2024/07/18 20:20 (retrieved 4 hours ago)

LGSK 182020Z 00000KT CAVOK 30/23 Q1011

Closest aviation forecast (TAF) to Skopelos Heliport

Forecast is more than 6 hours old.

Closest forecast is Graf Ignatievo Air Base, 197.1 nm (365.1 km) NNE.

2024/07/18 17:00 (retrieved 7 hours ago)

TAF LBPG 181600Z 1817/1905 09008G14KT 060V130 9999 SCT100 BECMG 1819/1821 VRB05KT BY LBSA